createdAt,value
2018-09-29T00:01:41.770Z,4.40
2018-09-29T00:04:11.080Z,4.83
2018-09-29T00:06:40.527Z,4.33
2018-09-29T00:09:11.658Z,4.60
2018-09-29T00:11:41.311Z,4.73
2018-09-29T00:14:11.223Z,4.63
2018-09-29T00:16:40.566Z,4.13
2018-09-29T00:19:09.822Z,4.93
2018-09-29T00:21:39.158Z,4.77
2018-09-29T00:24:08.964Z,5.27
2018-09-29T00:26:38.303Z,5.27
2018-09-29T00:29:08.191Z,5.70
2018-09-29T00:31:37.475Z,5.37
2018-09-29T00:34:06.784Z,5.33
2018-09-29T00:36:36.932Z,5.90
2018-09-29T00:39:07.209Z,5.17
2018-09-29T00:41:36.852Z,4.67
2018-09-29T00:44:06.093Z,4.77
2018-09-29T00:46:35.672Z,4.60
2018-09-29T00:49:05.299Z,5.10
2018-09-29T00:51:34.372Z,4.60
2018-09-29T00:54:03.632Z,4.73
2018-09-29T00:56:33.056Z,4.87
2018-09-29T00:59:02.240Z,4.17
2018-09-29T01:01:32.024Z,4.27
2018-09-29T01:04:01.260Z,3.63
2018-09-29T01:06:30.435Z,3.70
2018-09-29T01:08:59.865Z,3.33
2018-09-29T01:11:29.184Z,4.00
2018-09-29T01:13:58.253Z,3.80
2018-09-29T01:16:27.508Z,3.53
2018-09-29T01:18:56.936Z,3.40
2018-09-29T01:21:26.343Z,3.57
2018-09-29T01:23:55.644Z,3.13
2018-09-29T01:26:25.099Z,3.13
2018-09-29T01:28:54.251Z,3.07
2018-09-29T01:31:23.572Z,3.20
2018-09-29T01:33:53.065Z,3.73
2018-09-29T01:36:22.692Z,4.00
2018-09-29T01:38:52.360Z,3.90
2018-09-29T01:41:21.619Z,4.37
2018-09-29T01:43:50.825Z,4.37
2018-09-29T01:46:19.936Z,4.30
2018-09-29T01:48:49.422Z,3.60
2018-09-29T01:51:18.720Z,3.97
2018-09-29T01:53:48.382Z,4.00
2018-09-29T01:56:17.805Z,4.00
2018-09-29T01:58:47.227Z,3.97
2018-09-29T02:01:16.393Z,3.20
2018-09-29T02:03:45.678Z,3.00
2018-09-29T02:06:15.052Z,4.30
2018-09-29T02:08:44.367Z,4.43
2018-09-29T02:11:13.770Z,4.40
2018-09-29T02:13:43.237Z,4.83
2018-09-29T02:16:12.839Z,5.43
2018-09-29T02:18:42.163Z,4.27
2018-09-29T02:21:11.201Z,4.13
2018-09-29T02:23:40.363Z,4.43
2018-09-29T02:26:09.884Z,3.60
2018-09-29T02:28:39.479Z,3.97
2018-09-29T02:31:08.744Z,4.50
2018-09-29T02:33:38.152Z,5.00
2018-09-29T02:36:07.619Z,5.60
2018-09-29T02:38:36.926Z,5.60
2018-09-29T02:41:06.719Z,4.60
2018-09-29T02:43:35.839Z,4.73
2018-09-29T02:46:05.345Z,4.90
2018-09-29T02:48:34.604Z,4.50
2018-09-29T02:51:03.820Z,4.40
2018-09-29T02:53:33.140Z,4.43
2018-09-29T02:56:02.632Z,3.97
2018-09-29T02:58:31.835Z,4.77
2018-09-29T03:01:01.565Z,7.10
2018-09-29T03:03:31.795Z,5.87
2018-09-29T03:06:01.051Z,5.80
2018-09-29T03:08:30.468Z,5.30
2018-09-29T03:10:59.589Z,5.87
2018-09-29T03:13:28.915Z,5.57
2018-09-29T03:15:58.177Z,4.80
2018-09-29T03:18:27.336Z,5.17
2018-09-29T03:20:56.951Z,5.37
2018-09-29T03:23:26.722Z,5.13
2018-09-29T03:25:56.355Z,4.80
2018-09-29T03:28:25.333Z,4.87
2018-09-29T03:30:54.655Z,4.83
2018-09-29T03:33:23.772Z,4.93
2018-09-29T03:35:53.012Z,4.97
2018-09-29T03:38:22.523Z,5.33
2018-09-29T03:40:51.947Z,4.93
2018-09-29T03:43:21.394Z,6.33
2018-09-29T03:45:50.827Z,5.80
2018-09-29T03:48:20.085Z,5.80
2018-09-29T03:50:49.375Z,6.07
2018-09-29T03:53:18.732Z,5.87
2018-09-29T03:55:48.053Z,5.67
2018-09-29T03:58:17.161Z,6.43
2018-09-29T04:00:46.429Z,5.33
2018-09-29T04:03:16.026Z,5.90
2018-09-29T04:05:45.553Z,4.43
2018-09-29T04:08:15.098Z,4.83
2018-09-29T04:10:44.712Z,4.50
2018-09-29T04:13:13.850Z,4.53
2018-09-29T04:15:42.985Z,4.33
2018-09-29T04:18:12.489Z,4.37
2018-09-29T04:20:41.791Z,5.03
2018-09-29T04:23:10.995Z,5.00
2018-09-29T04:25:40.534Z,5.40
2018-09-29T04:28:09.631Z,5.27
2018-09-29T04:30:39.126Z,5.83
2018-09-29T04:33:08.463Z,6.70
2018-09-29T04:35:38.137Z,6.17
2018-09-29T04:38:07.406Z,7.30
2018-09-29T04:40:37.014Z,6.20
2018-09-29T04:43:06.470Z,6.93
2018-09-29T04:45:35.463Z,6.20
2018-09-29T04:48:05.337Z,6.60
2018-09-29T04:50:34.727Z,6.70
2018-09-29T04:53:03.920Z,7.00
2018-09-29T04:55:34.090Z,6.50
2018-09-29T04:58:03.160Z,6.97
2018-09-29T05:00:32.324Z,7.40
2018-09-29T05:03:01.748Z,6.80
2018-09-29T05:05:30.874Z,7.80
2018-09-29T05:08:00.395Z,9.03
2018-09-29T05:10:29.662Z,7.87
2018-09-29T05:12:58.776Z,10.27
2018-09-29T05:15:28.084Z,8.20
2018-09-29T05:17:57.495Z,10.13
2018-09-29T05:20:26.805Z,10.67
2018-09-29T05:22:56.566Z,11.73
2018-09-29T05:25:26.076Z,11.23
2018-09-29T05:27:55.266Z,11.20
2018-09-29T05:30:24.270Z,12.17
2018-09-29T05:32:53.847Z,11.93
2018-09-29T05:35:22.921Z,11.83
2018-09-29T05:37:52.394Z,12.73
2018-09-29T05:40:21.504Z,13.53
2018-09-29T05:42:50.820Z,13.47
2018-09-29T05:45:20.184Z,13.93
2018-09-29T05:47:49.567Z,13.67
2018-09-29T05:50:19.048Z,13.33
2018-09-29T05:52:48.465Z,14.07
2018-09-29T05:55:17.584Z,13.00
2018-09-29T05:57:46.885Z,13.47
2018-09-29T06:00:16.425Z,13.47
2018-09-29T06:02:45.428Z,14.23
2018-09-29T06:05:14.629Z,12.97
2018-09-29T06:07:43.823Z,11.63
2018-09-29T06:10:13.096Z,14.00
2018-09-29T06:12:42.508Z,15.27
2018-09-29T06:15:11.997Z,12.87
2018-09-29T06:17:41.517Z,13.40
2018-09-29T06:20:11.048Z,13.63
2018-09-29T06:22:40.385Z,11.83
2018-09-29T06:25:09.744Z,12.77
2018-09-29T06:27:39.250Z,14.17
2018-09-29T06:30:08.317Z,13.20
2018-09-29T06:32:37.886Z,9.47
2018-09-29T06:35:07.501Z,9.53
2018-09-29T06:37:36.833Z,10.13
2018-09-29T06:40:06.469Z,11.23
2018-09-29T06:42:35.784Z,8.67
2018-09-29T06:45:05.782Z,11.83
2018-09-29T06:47:35.368Z,7.70
2018-09-29T06:50:04.932Z,7.77
2018-09-29T06:52:34.234Z,6.87
2018-09-29T06:55:03.647Z,7.43
2018-09-29T06:57:33.088Z,8.17
2018-09-29T07:00:02.710Z,8.10
2018-09-29T07:02:32.179Z,7.33
2018-09-29T07:05:02.150Z,6.13
2018-09-29T07:07:31.804Z,6.17
2018-09-29T07:10:01.020Z,48.40
2018-09-29T07:12:30.210Z,19.20
2018-09-29T07:14:59.725Z,10.17
2018-09-29T07:17:29.095Z,6.13
2018-09-29T07:19:58.347Z,5.93
2018-09-29T07:22:27.705Z,5.83
2018-09-29T07:24:56.770Z,6.27
2018-09-29T07:27:26.277Z,5.10
2018-09-29T07:29:55.866Z,5.63
2018-09-29T07:32:25.162Z,4.90
2018-09-29T07:34:54.707Z,31.83
2018-09-29T07:37:24.262Z,10.70
2018-09-29T07:39:53.674Z,7.33
2018-09-29T07:42:23.459Z,8.23
2018-09-29T07:44:53.042Z,5.67
2018-09-29T07:47:22.722Z,8.07
2018-09-29T07:49:52.112Z,13.23
2018-09-29T07:52:21.879Z,6.70
2018-09-29T07:54:51.352Z,5.60
2018-09-29T07:57:20.557Z,4.47
2018-09-29T07:59:50.063Z,4.63
2018-09-29T08:02:19.470Z,4.47
2018-09-29T08:04:48.868Z,4.57
2018-09-29T08:07:18.357Z,5.07
2018-09-29T08:09:47.619Z,5.67
2018-09-29T08:12:16.947Z,4.60
2018-09-29T08:14:47.323Z,5.40
2018-09-29T08:17:16.621Z,4.73
2018-09-29T08:19:45.564Z,5.57
2018-09-29T08:22:14.984Z,4.67
2018-09-29T08:24:44.363Z,4.23
2018-09-29T08:27:13.438Z,4.30
2018-09-29T08:29:42.803Z,4.70
2018-09-29T08:32:12.564Z,4.60
2018-09-29T08:34:42.410Z,5.40
2018-09-29T08:37:12.236Z,5.27
2018-09-29T08:39:41.790Z,5.13
2018-09-29T08:42:11.118Z,5.00
2018-09-29T08:44:40.962Z,4.80
2018-09-29T08:47:10.272Z,4.90
2018-09-29T08:49:39.650Z,5.53
2018-09-29T08:52:09.111Z,5.90
2018-09-29T08:54:39.118Z,6.10
2018-09-29T08:57:08.352Z,5.87
2018-09-29T08:59:38.019Z,6.33
2018-09-29T09:02:07.271Z,5.47
2018-09-29T09:04:36.745Z,6.73
2018-09-29T09:07:07.601Z,12.83
2018-09-29T09:09:37.189Z,7.73
2018-09-29T09:12:06.437Z,5.10
2018-09-29T09:14:35.728Z,4.60
2018-09-29T09:17:04.987Z,3.90
2018-09-29T09:19:34.155Z,3.40
2018-09-29T09:22:03.674Z,4.30
2018-09-29T09:24:33.303Z,4.90
2018-09-29T09:27:02.613Z,4.60
2018-09-29T09:29:32.000Z,4.30
2018-09-29T09:32:02.540Z,4.87
2018-09-29T09:34:33.201Z,5.00
2018-09-29T09:37:03.704Z,3.70
2018-09-29T09:39:34.208Z,4.30
2018-09-29T09:42:06.317Z,3.73
2018-09-29T09:44:37.978Z,2.80
2018-09-29T09:47:07.082Z,3.43
2018-09-29T09:49:36.705Z,3.73
2018-09-29T09:52:05.951Z,6.20
2018-09-29T09:54:35.137Z,3.53
2018-09-29T09:57:04.387Z,4.13
2018-09-29T09:59:34.241Z,5.33
2018-09-29T10:02:09.061Z,5.73
2018-09-29T10:04:39.827Z,2.97
2018-09-29T10:07:14.068Z,2.97
2018-09-29T10:09:44.063Z,2.77
2018-09-29T10:12:13.431Z,3.90
2018-09-29T10:14:43.476Z,2.80
2018-09-29T10:17:12.854Z,2.70
2018-09-29T10:19:43.092Z,2.70
2018-09-29T10:22:12.562Z,3.03
2018-09-29T10:24:41.717Z,2.80
2018-09-29T10:27:11.981Z,2.77
2018-09-29T10:29:42.430Z,2.87
2018-09-29T10:32:14.272Z,2.80
2018-09-29T10:34:43.910Z,3.13
2018-09-29T10:37:14.467Z,4.27
2018-09-29T10:39:43.840Z,4.30
2018-09-29T10:42:13.816Z,5.87
2018-09-29T10:44:43.260Z,2.30
2018-09-29T10:47:12.803Z,2.40
2018-09-29T10:49:42.645Z,2.10
2018-09-29T10:52:12.310Z,2.53
2018-09-29T10:54:41.795Z,4.30
2018-09-29T10:57:11.303Z,4.73
2018-09-29T10:59:40.655Z,6.90
2018-09-29T11:02:10.294Z,10.53
2018-09-29T11:04:40.336Z,17.53
2018-09-29T11:07:10.032Z,17.27
2018-09-29T11:09:39.275Z,13.97
2018-09-29T11:12:08.643Z,5.90
2018-09-29T11:14:37.713Z,7.97
2018-09-29T11:17:06.874Z,13.67
2018-09-29T11:19:36.164Z,4.60
2018-09-29T11:22:05.590Z,3.80
2018-09-29T11:24:35.270Z,4.87
2018-09-29T11:27:04.483Z,5.10
2018-09-29T11:29:35.427Z,6.17
2018-09-29T11:32:04.508Z,5.03
2018-09-29T11:34:33.988Z,6.17
2018-09-29T11:37:03.660Z,8.77
2018-09-29T11:39:33.292Z,5.77
2018-09-29T11:42:03.264Z,3.50
2018-09-29T11:44:32.350Z,4.50
2018-09-29T11:47:02.904Z,3.80
2018-09-29T11:49:32.265Z,4.53
2018-09-29T11:52:02.543Z,6.47
2018-09-29T11:54:34.931Z,4.70
2018-09-29T11:57:04.543Z,4.27
2018-09-29T11:59:34.673Z,6.13
2018-09-29T12:02:04.507Z,9.53
2018-09-29T12:04:37.247Z,6.80
2018-09-29T12:07:06.732Z,9.90
2018-09-29T12:09:41.080Z,3.77
2018-09-29T12:12:11.595Z,6.93
2018-09-29T12:14:41.107Z,6.50
2018-09-29T12:17:10.648Z,3.27
2018-09-29T12:19:42.438Z,2.20
2018-09-29T12:22:13.306Z,2.07
2018-09-29T12:24:42.754Z,4.90
2018-09-29T12:27:12.162Z,2.90
2018-09-29T12:29:41.538Z,2.13
2018-09-29T12:32:11.122Z,2.20
2018-09-29T12:34:40.670Z,3.00
2018-09-29T12:37:10.088Z,2.60
2018-09-29T12:39:39.271Z,2.73
2018-09-29T12:42:08.647Z,2.80
2018-09-29T12:44:37.996Z,2.37
2018-09-29T12:47:07.856Z,2.50
2018-09-29T12:49:37.044Z,2.30
2018-09-29T12:52:15.078Z,2.47
2018-09-29T12:54:44.671Z,2.50
2018-09-29T12:57:14.437Z,2.80
2018-09-29T12:59:44.781Z,2.57
2018-09-29T13:02:14.505Z,2.70
2018-09-29T13:04:43.969Z,3.00
2018-09-29T13:07:13.643Z,2.70
2018-09-29T13:09:43.261Z,3.80
2018-09-29T13:12:13.093Z,3.33
2018-09-29T13:14:42.521Z,3.93
2018-09-29T13:17:15.785Z,4.90
2018-09-29T13:19:45.369Z,7.73
2018-09-29T13:22:14.362Z,8.90
2018-09-29T13:24:43.704Z,6.70
2018-09-29T13:27:13.196Z,3.90
2018-09-29T13:29:42.538Z,5.10
2018-09-29T13:32:12.159Z,2.60
2018-09-29T13:34:41.376Z,2.30
2018-09-29T13:37:10.832Z,2.67
2018-09-29T13:39:39.879Z,2.63
2018-09-29T13:42:09.254Z,2.47
2018-09-29T13:44:38.848Z,2.60
2018-09-29T13:47:08.399Z,3.57
2018-09-29T13:49:37.896Z,3.03
2018-09-29T13:52:09.361Z,6.90
2018-09-29T13:54:38.616Z,4.73
2018-09-29T13:57:07.837Z,2.37
2018-09-29T13:59:37.637Z,4.27
2018-09-29T14:02:07.440Z,3.67
2018-09-29T14:04:36.704Z,2.33
2018-09-29T14:07:06.004Z,3.10
2018-09-29T14:09:35.563Z,7.20
2018-09-29T14:12:05.155Z,7.10
2018-09-29T14:14:34.555Z,22.40
2018-09-29T14:17:03.986Z,8.03
2018-09-29T14:19:34.624Z,7.10
2018-09-29T14:22:03.847Z,18.47
2018-09-29T14:24:33.269Z,8.70
2018-09-29T14:27:02.703Z,28.20
2018-09-29T14:29:31.646Z,11.30
2018-09-29T14:32:00.959Z,6.40
2018-09-29T14:34:30.662Z,8.83
2018-09-29T14:36:59.766Z,5.97
2018-09-29T14:39:28.972Z,5.13
2018-09-29T14:41:58.252Z,6.60
2018-09-29T14:44:27.844Z,7.17
2018-09-29T14:46:57.341Z,5.43
2018-09-29T14:49:26.935Z,4.47
2018-09-29T14:51:56.408Z,3.83
2018-09-29T14:54:26.033Z,12.40
2018-09-29T14:56:55.193Z,9.03
2018-09-29T14:59:24.938Z,8.23
2018-09-29T15:01:54.362Z,6.83
2018-09-29T15:04:23.560Z,12.30
2018-09-29T15:06:52.942Z,11.33
2018-09-29T15:09:22.111Z,7.90
2018-09-29T15:11:52.393Z,6.17
2018-09-29T15:14:21.952Z,8.43
2018-09-29T15:16:51.489Z,7.90
2018-09-29T15:19:20.892Z,7.10
2018-09-29T15:21:50.366Z,8.13
2018-09-29T15:24:20.833Z,13.27
2018-09-29T15:26:50.256Z,16.67
2018-09-29T15:29:19.889Z,14.00
2018-09-29T15:31:49.283Z,15.93
2018-09-29T15:34:18.957Z,17.20
2018-09-29T15:36:48.309Z,21.93
2018-09-29T15:39:17.521Z,26.90
2018-09-29T15:41:46.978Z,16.67
2018-09-29T15:44:16.648Z,12.23
2018-09-29T15:46:46.410Z,13.17
2018-09-29T15:49:15.697Z,14.43
2018-09-29T15:51:45.040Z,7.30
2018-09-29T15:54:14.160Z,12.73
2018-09-29T15:56:43.940Z,15.43
2018-09-29T15:59:13.283Z,10.20
2018-09-29T16:01:42.780Z,18.33
2018-09-29T16:04:12.291Z,16.97
2018-09-29T16:06:41.595Z,22.07
2018-09-29T16:09:11.448Z,19.23
2018-09-29T16:11:41.308Z,10.27
2018-09-29T16:14:10.420Z,17.90
2018-09-29T16:16:39.696Z,33.40
2018-09-29T16:19:09.391Z,35.83
2018-09-29T16:21:39.355Z,23.70
2018-09-29T16:24:09.145Z,21.17
2018-09-29T16:26:40.032Z,29.33
2018-09-29T16:29:09.841Z,26.27
2018-09-29T16:31:42.319Z,28.80
2018-09-29T16:34:13.065Z,32.90
2018-09-29T16:36:47.763Z,75.97
2018-09-29T16:39:17.992Z,71.80
2018-09-29T16:41:47.522Z,64.50
2018-09-29T16:44:16.857Z,73.90
2018-09-29T16:46:46.602Z,52.50
2018-09-29T16:49:15.956Z,52.17
2018-09-29T16:51:45.907Z,43.70
2018-09-29T16:54:15.628Z,29.33
2018-09-29T16:56:45.078Z,31.63
2018-09-29T16:59:14.333Z,25.97
2018-09-29T17:01:43.568Z,23.27
2018-09-29T17:04:12.938Z,25.07
2018-09-29T17:06:42.410Z,20.33
2018-09-29T17:09:12.857Z,18.23
2018-09-29T17:11:42.613Z,16.83
2018-09-29T17:14:12.488Z,27.37
2018-09-29T17:16:42.059Z,30.10
2018-09-29T17:19:11.420Z,28.37
2018-09-29T17:21:41.294Z,31.20
2018-09-29T17:24:10.806Z,37.93
2018-09-29T17:26:40.156Z,36.73
2018-09-29T17:29:09.278Z,39.53
2018-09-29T17:31:38.693Z,45.73
2018-09-29T17:34:07.790Z,48.57
2018-09-29T17:36:37.210Z,43.23
2018-09-29T17:39:08.848Z,42.33
2018-09-29T17:41:38.401Z,38.87
2018-09-29T17:44:08.632Z,43.67
2018-09-29T17:46:38.158Z,40.30
2018-09-29T17:49:07.663Z,40.17
2018-09-29T17:51:37.975Z,42.57
2018-09-29T17:54:07.375Z,39.57
2018-09-29T17:56:36.737Z,39.03
2018-09-29T17:59:06.444Z,37.67
2018-09-29T18:01:36.028Z,37.73
2018-09-29T18:04:05.591Z,36.70
2018-09-29T18:06:36.057Z,35.87
2018-09-29T18:09:07.792Z,38.33
2018-09-29T18:11:37.095Z,36.30
2018-09-29T18:14:06.556Z,34.60
2018-09-29T18:16:36.185Z,33.23
2018-09-29T18:19:05.918Z,30.17
2018-09-29T18:21:35.617Z,30.13
2018-09-29T18:24:04.977Z,31.37
2018-09-29T18:26:34.682Z,31.50
2018-09-29T18:29:04.042Z,30.73
2018-09-29T18:31:33.213Z,31.23
2018-09-29T18:34:02.505Z,30.97
2018-09-29T18:36:31.901Z,29.40
2018-09-29T18:39:00.943Z,27.90
2018-09-29T18:41:30.193Z,28.00
2018-09-29T18:43:59.460Z,29.97
2018-09-29T18:46:28.897Z,28.70
2018-09-29T18:48:58.284Z,22.47
2018-09-29T18:51:28.028Z,23.70
2018-09-29T18:53:57.229Z,25.63
2018-09-29T18:56:26.602Z,31.23
2018-09-29T18:58:56.475Z,30.13
2018-09-29T19:01:26.056Z,29.17
2018-09-29T19:03:55.655Z,27.83
2018-09-29T19:06:25.073Z,28.60
2018-09-29T19:08:54.279Z,26.30
2018-09-29T19:11:23.864Z,24.07
2018-09-29T19:13:53.217Z,22.43
2018-09-29T19:16:23.112Z,20.30
2018-09-29T19:18:52.851Z,18.73
2018-09-29T19:21:22.272Z,20.47
2018-09-29T19:23:51.719Z,23.03
2018-09-29T19:26:21.114Z,23.13
2018-09-29T19:28:50.521Z,24.17
2018-09-29T19:31:19.796Z,25.50
2018-09-29T19:33:49.211Z,27.03
2018-09-29T19:36:18.253Z,28.17
2018-09-29T19:38:47.572Z,24.40
2018-09-29T19:41:16.922Z,22.97
2018-09-29T19:43:46.165Z,19.20
2018-09-29T19:46:15.629Z,17.17
2018-09-29T19:48:44.724Z,17.13
2018-09-29T19:51:14.504Z,17.30
2018-09-29T19:53:43.869Z,19.70
2018-09-29T19:56:13.165Z,21.63
2018-09-29T19:58:42.369Z,22.67
2018-09-29T20:01:11.524Z,25.30
2018-09-29T20:03:40.848Z,26.90
2018-09-29T20:06:10.073Z,27.33
2018-09-29T20:08:39.284Z,30.17
2018-09-29T20:11:08.752Z,29.00
2018-09-29T20:13:38.206Z,31.83
2018-09-29T20:16:07.842Z,36.07
2018-09-29T20:18:37.304Z,31.03
2018-09-29T20:21:07.103Z,33.23
2018-09-29T20:23:36.161Z,32.30
2018-09-29T20:26:05.659Z,33.87
2018-09-29T20:28:35.250Z,35.97
2018-09-29T20:31:05.255Z,32.57
2018-09-29T20:33:34.336Z,30.07
2018-09-29T20:36:03.899Z,31.00
2018-09-29T20:38:33.335Z,31.83
2018-09-29T20:41:02.776Z,30.40
2018-09-29T20:43:32.750Z,24.43
2018-09-29T20:46:02.941Z,25.77
2018-09-29T20:48:32.168Z,27.50
2018-09-29T20:51:01.242Z,28.07
2018-09-29T20:53:31.297Z,28.07
2018-09-29T20:56:00.624Z,26.90
2018-09-29T20:58:29.760Z,26.20
2018-09-29T21:00:59.264Z,25.63
2018-09-29T21:03:28.349Z,24.53
2018-09-29T21:05:57.796Z,24.90
2018-09-29T21:08:27.146Z,25.07
2018-09-29T21:10:56.303Z,27.87
2018-09-29T21:13:25.606Z,29.33
2018-09-29T21:15:54.709Z,35.90
2018-09-29T21:18:24.089Z,36.33
2018-09-29T21:20:53.252Z,35.80
2018-09-29T21:23:22.733Z,35.37
2018-09-29T21:25:52.127Z,35.97
2018-09-29T21:28:21.335Z,38.00
2018-09-29T21:30:50.897Z,38.70
2018-09-29T21:33:19.974Z,38.20
2018-09-29T21:35:49.425Z,39.97
2018-09-29T21:38:18.773Z,37.87
2018-09-29T21:40:48.045Z,36.20
2018-09-29T21:43:16.939Z,33.87
2018-09-29T21:45:46.416Z,35.37
2018-09-29T21:48:16.534Z,34.90
2018-09-29T21:50:46.101Z,36.47
2018-09-29T21:53:15.235Z,36.73
2018-09-29T21:55:44.407Z,36.43
2018-09-29T21:58:13.611Z,34.47
2018-09-29T22:00:44.316Z,34.27
2018-09-29T22:03:14.850Z,34.57
2018-09-29T22:05:44.532Z,31.50
2018-09-29T22:08:14.096Z,35.80
2018-09-29T22:10:43.840Z,29.93
2018-09-29T22:13:13.186Z,30.80
2018-09-29T22:15:42.349Z,33.13
2018-09-29T22:18:11.613Z,33.63
2018-09-29T22:20:41.039Z,33.30
2018-09-29T22:23:10.328Z,30.67
2018-09-29T22:25:40.006Z,30.37
2018-09-29T22:28:09.036Z,30.63
2018-09-29T22:30:38.781Z,29.73
2018-09-29T22:33:08.600Z,32.47
2018-09-29T22:35:37.981Z,33.93
2018-09-29T22:38:08.078Z,34.30
2018-09-29T22:40:37.333Z,29.73
2018-09-29T22:43:06.927Z,29.67
2018-09-29T22:45:36.356Z,28.40
2018-09-29T22:48:05.899Z,26.97
2018-09-29T22:50:36.190Z,23.13
2018-09-29T22:53:05.582Z,23.90
2018-09-29T22:55:34.921Z,24.20
2018-09-29T22:58:04.325Z,24.70
2018-09-29T23:00:33.399Z,24.50
2018-09-29T23:03:02.609Z,24.87
2018-09-29T23:05:31.848Z,25.07
2018-09-29T23:08:02.328Z,25.13
2018-09-29T23:10:31.296Z,22.90
2018-09-29T23:13:00.351Z,23.07
2018-09-29T23:15:29.764Z,23.73
2018-09-29T23:17:59.215Z,22.83
2018-09-29T23:20:28.526Z,23.77
2018-09-29T23:22:58.204Z,22.97
2018-09-29T23:25:27.365Z,22.17
2018-09-29T23:27:56.751Z,22.07
2018-09-29T23:30:26.156Z,22.10
2018-09-29T23:32:55.452Z,21.67
2018-09-29T23:35:24.788Z,21.43
2018-09-29T23:37:53.945Z,21.60
2018-09-29T23:40:23.141Z,20.33
2018-09-29T23:42:52.399Z,22.20
2018-09-29T23:45:21.918Z,23.07
2018-09-29T23:47:51.120Z,23.07
2018-09-29T23:50:20.585Z,20.67
2018-09-29T23:52:50.117Z,20.87
2018-09-29T23:55:19.423Z,19.57
2018-09-29T23:57:48.565Z,20.83
